Terminal Aerodrome Forecast
Issued by NWS Charleston, SC

Home | Current Version | Previous Version | Text Only | Print | Product List | Glossary On
Versions: 1 2 3 4 5 6 7 8 9 10 11 12 13 14 15 16 17 18 19 20 21 22 23 24 25 26 27 28
000
FTUS42 KCHS 051120
TAFSAV
TAF
KSAV 051120Z 0512/0612 20007KT P6SM SCT012 SCT070 WS010/21035KT
     FM051500 21013G21KT P6SM SCT030
     FM060000 34012G22KT 4SM -RA SCT006 BKN015
     FM060400 36012G18KT 5SM -DZ BR OVC008=

USA.gov is the U.S. government's official web portal to all federal, state and local government web resources and services.